Time;durP1;ratioP1;P1;durP2;ratioP2;P2;SDS_P1;SDS_P2;PMS_P1;PMS_P2;Temp;Humidity;BMP_temperature;BMP_pressure;BME280_temperature;BME280_humidity;BME280_pressure;Samples;Min_cycle;Max_cycle;Signal;HPM_P1;HPM_P2
2022/10/05 00:01:02;;;;;;;3.27;3.07;;;11.80;75.40;11.80;97111.00;;;;5072051;28;20204;-83
2022/10/05 00:03:35;;;;;;;3.63;2.97;;;11.80;75.30;11.80;97106.00;;;;5062366;28;20250;-83
2022/10/05 00:06:03;;;;;;;3.33;2.87;;;11.80;75.20;11.80;97101.00;;;;5071334;28;20203;-84
2022/10/05 00:08:35;;;;;;;3.17;2.87;;;11.80;75.00;11.80;97094.00;;;;5070302;28;20681;-83
2022/10/05 00:11:02;;;;;;;2.90;2.70;;;11.80;74.70;11.70;97094.00;;;;5071577;28;20191;-83
2022/10/05 00:13:31;;;;;;;3.47;2.87;;;11.70;74.50;11.70;97089.00;;;;5072389;28;20231;-83
2022/10/05 00:16:14;;;;;;;3.77;2.87;;;11.70;74.50;11.70;97088.00;;;;5070243;28;20622;-83
2022/10/05 00:18:50;;;;;;;3.67;3.27;;;11.70;74.40;11.70;97085.00;;;;5071013;28;20544;-84
2022/10/05 00:21:21;;;;;;;4.80;4.00;;;11.80;74.50;11.60;97076.00;;;;5074962;28;20655;-83
2022/10/05 00:23:50;;;;;;;3.40;3.20;;;11.70;74.30;11.60;97075.00;;;;5065009;28;20303;-83
2022/10/05 00:26:22;;;;;;;3.80;3.50;;;11.60;74.40;11.60;97075.00;;;;5069066;28;20282;-83
2022/10/05 00:28:51;;;;;;;4.03;3.63;;;11.60;74.60;11.60;97067.00;;;;5069989;28;20245;-83
2022/10/05 00:31:21;;;;;;;5.17;3.50;;;11.60;74.70;11.60;97061.00;;;;5068996;28;20234;-83
2022/10/05 00:33:49;;;;;;;3.13;2.83;;;11.60;75.10;11.60;97060.00;;;;5076121;28;20315;-83
2022/10/05 00:36:17;;;;;;;3.53;3.00;;;11.60;75.10;11.60;97065.00;;;;5070249;28;20386;-83
2022/10/05 00:38:45;;;;;;;3.80;3.40;;;11.60;75.10;11.60;97066.00;;;;5069890;28;20210;-83
2022/10/05 00:41:20;;;;;;;3.20;2.90;;;11.60;75.30;11.60;97068.00;;;;5069863;28;20664;-83
2022/10/05 00:44:24;;;;;;;3.93;3.37;;;11.60;75.10;11.60;97058.00;;;;5064577;28;20613;-84
2022/10/05 00:47:04;;;;;;;4.57;3.17;;;11.60;75.00;11.60;97071.00;;;;5067864;28;20206;-84
2022/10/05 00:49:57;;;;;;;6.17;3.47;;;11.60;75.10;11.60;97054.00;;;;5076216;28;20201;-83
2022/10/05 00:52:40;;;;;;;3.83;3.13;;;11.60;75.20;11.50;97056.00;;;;5066084;28;20680;-83
2022/10/05 00:55:22;;;;;;;3.70;3.40;;;11.50;74.90;11.50;97053.00;;;;5075764;28;20262;-83
2022/10/05 00:58:10;;;;;;;4.97;3.63;;;11.50;74.90;11.50;97048.00;;;;5068942;28;20576;-83
2022/10/05 01:00:54;;;;;;;4.60;3.37;;;11.50;74.80;11.50;97049.00;;;;5072384;28;20402;-83
2022/10/05 01:03:38;;;;;;;5.10;4.00;;;11.50;74.80;11.40;97043.00;;;;5073494;28;20659;-83
2022/10/05 01:06:18;;;;;;;4.23;3.83;;;11.50;74.70;11.40;97036.00;;;;5072503;28;20223;-84
2022/10/05 01:08:58;;;;;;;4.07;3.77;;;11.50;74.80;11.40;97040.00;;;;5074306;28;20272;-83
2022/10/05 01:11:35;;;;;;;4.17;3.77;;;11.50;74.60;11.40;97031.00;;;;5071131;28;20232;-83
2022/10/05 01:14:11;;;;;;;4.53;4.10;;;11.40;74.60;11.30;97033.00;;;;5074197;28;20310;-83
2022/10/05 01:16:50;;;;;;;5.53;4.03;;;11.40;74.60;11.30;97036.00;;;;5075231;28;20223;-83
2022/10/05 01:19:49;;;;;;;4.33;3.93;;;11.40;74.50;11.30;97025.00;;;;5072255;28;20198;-83
2022/10/05 01:22:32;;;;;;;3.97;3.57;;;11.40;74.40;11.30;97019.00;;;;5069530;28;20193;-83
2022/10/05 01:25:21;;;;;;;4.40;4.00;;;11.30;74.30;11.30;97023.00;;;;5071344;28;20717;-84
2022/10/05 01:28:01;;;;;;;4.80;3.67;;;11.30;74.30;11.20;97017.00;;;;5078287;28;20262;-83
2022/10/05 01:30:37;;;;;;;3.67;3.37;;;11.30;74.40;11.20;97016.00;;;;5077435;28;20200;-83
2022/10/05 01:33:18;;;;;;;3.77;3.20;;;11.30;74.40;11.20;97014.00;;;;5074020;28;20574;-84
2022/10/05 01:36:00;;;;;;;3.50;3.23;;;11.30;74.50;11.20;97011.00;;;;5073303;28;20227;-83
2022/10/05 01:38:49;;;;;;;3.03;2.83;;;11.20;74.40;11.10;97017.00;;;;5073446;28;20220;-83
2022/10/05 01:41:30;;;;;;;3.67;3.37;;;11.20;74.40;11.10;97029.00;;;;5075567;28;20251;-83
2022/10/05 01:44:07;;;;;;;3.60;3.07;;;11.20;74.40;11.10;97022.00;;;;5064529;28;20230;-84
2022/10/05 01:46:43;;;;;;;3.83;3.53;;;11.20;74.40;11.10;97023.00;;;;5072014;28;20234;-83
2022/10/05 01:49:35;;;;;;;3.97;3.40;;;11.10;74.70;11.10;97024.00;;;;5072943;28;20200;-83
2022/10/05 01:52:19;;;;;;;3.60;3.30;;;11.10;74.40;11.00;97024.00;;;;5070551;28;20299;-83
2022/10/05 01:55:03;;;;;;;3.33;3.03;;;11.10;74.50;11.00;97022.00;;;;5077424;28;20320;-83
2022/10/05 01:57:47;;;;;;;3.70;3.40;;;11.10;74.50;11.00;97021.00;;;;5069618;28;20192;-83
2022/10/05 02:00:18;;;;;;;3.57;3.03;;;11.00;74.40;11.00;97017.00;;;;5072296;28;20583;-83
2022/10/05 02:02:50;;;;;;;3.40;3.10;;;11.00;74.40;11.00;97018.00;;;;5075868;28;20200;-83
2022/10/05 02:05:24;;;;;;;3.13;2.93;;;11.00;74.50;11.00;97016.00;;;;5066514;28;20219;-83
2022/10/05 02:07:58;;;;;;;3.00;2.80;;;11.00;74.60;10.90;97010.00;;;;5068021;28;20299;-83
2022/10/05 02:10:32;;;;;;;3.27;2.97;;;11.00;74.70;10.90;97013.00;;;;5076371;28;20278;-83
2022/10/05 02:13:09;;;;;;;3.20;3.00;;;11.00;74.80;10.90;97011.00;;;;5060203;28;20579;-83
2022/10/05 02:15:45;;;;;;;2.97;2.77;;;11.00;74.80;10.90;97006.00;;;;5062406;28;20716;-83
2022/10/05 02:18:19;;;;;;;2.40;2.27;;;11.00;74.80;10.90;97000.00;;;;5071403;28;20192;-83
2022/10/05 02:20:50;;;;;;;2.60;2.40;;;11.00;74.80;10.90;96992.00;;;;5076633;28;20257;-83
2022/10/05 02:23:23;;;;;;;2.67;2.47;;;10.90;74.90;10.90;96986.00;;;;5075146;28;20290;-83
2022/10/05 02:25:54;;;;;;;2.30;2.10;;;11.00;75.00;10.90;96997.00;;;;5075483;28;20199;-83
2022/10/05 02:28:29;;;;;;;2.87;2.30;;;11.00;75.00;10.90;96993.00;;;;5067118;28;20575;-83
2022/10/05 02:31:06;;;;;;;2.43;2.33;;;11.00;75.10;10.90;96998.00;;;;5069343;28;20207;-83
2022/10/05 02:33:35;;;;;;;2.37;2.20;;;10.90;75.00;10.90;96997.00;;;;5062682;28;20192;-84
2022/10/05 02:36:11;;;;;;;2.40;2.30;;;10.90;74.90;10.90;96988.00;;;;5063515;28;20594;-83
2022/10/05 02:38:56;;;;;;;2.73;2.53;;;10.90;74.90;10.80;96985.00;;;;5069860;28;20195;-83
2022/10/05 02:41:38;;;;;;;2.00;1.90;;;10.90;74.80;10.80;96979.00;;;;5073032;28;20284;-83
2022/10/05 02:44:25;;;;;;;2.30;1.97;;;10.90;74.80;10.80;96978.00;;;;5070852;28;20303;-83
2022/10/05 02:47:10;;;;;;;2.20;2.10;;;10.90;74.90;10.80;96970.00;;;;5062950;28;20220;-83
2022/10/05 02:49:47;;;;;;;2.10;2.00;;;10.90;74.80;10.80;96987.00;;;;5072194;28;20572;-83
2022/10/05 02:52:23;;;;;;;1.93;1.83;;;10.90;74.80;10.80;96998.00;;;;5067982;28;20286;-83
2022/10/05 02:55:02;;;;;;;1.83;1.73;;;10.90;74.90;10.80;96996.00;;;;5063531;28;20228;-84
2022/10/05 02:57:35;;;;;;;2.20;2.10;;;10.90;74.90;10.80;96990.00;;;;5069634;28;20283;-83
2022/10/05 03:00:09;;;;;;;2.23;2.13;;;10.80;74.80;10.70;96985.00;;;;5070143;28;20215;-83
2022/10/05 03:02:47;;;;;;;2.20;2.10;;;10.80;74.70;10.70;96985.00;;;;5073398;28;20207;-83
2022/10/05 03:05:25;;;;;;;2.47;2.27;;;10.70;74.60;10.70;96992.00;;;;5068233;28;20303;-83
2022/10/05 03:08:01;;;;;;;2.10;2.00;;;10.80;74.80;10.70;96991.00;;;;5071188;28;20202;-84
2022/10/05 03:10:37;;;;;;;2.30;2.20;;;10.80;74.70;10.70;96986.00;;;;5073095;28;20670;-83
2022/10/05 03:13:12;;;;;;;2.00;1.90;;;10.80;74.70;10.70;96976.00;;;;5074106;28;20640;-83
2022/10/05 03:16:10;;;;;;;2.10;2.00;;;10.80;74.70;10.70;96986.00;;;;5067434;28;20709;-84
2022/10/05 03:18:56;;;;;;;2.27;2.03;;;10.70;74.50;10.60;96990.00;;;;5073979;28;20202;-83
2022/10/05 03:21:52;;;;;;;2.03;1.90;;;10.70;74.50;10.60;96993.00;;;;5067288;28;20684;-83
2022/10/05 03:24:44;;;;;;;2.20;2.10;;;10.70;74.60;10.60;96993.00;;;;5077590;28;20273;-83
2022/10/05 03:27:26;;;;;;;2.77;2.57;;;10.70;74.50;10.60;96983.00;;;;5061887;28;20685;-83
2022/10/05 03:30:04;;;;;;;2.10;1.90;;;10.70;74.50;10.50;96985.00;;;;5061789;28;20676;-83
2022/10/05 03:32:44;;;;;;;2.50;2.30;;;10.70;75.30;10.50;96984.00;;;;5067267;28;20283;-83
2022/10/05 03:35:20;;;;;;;2.73;2.30;;;10.60;74.70;10.50;96985.00;;;;5073161;28;20225;-83
2022/10/05 03:37:56;;;;;;;2.40;2.20;;;10.60;75.30;10.50;96978.00;;;;5067750;28;20564;-83
2022/10/05 03:40:34;;;;;;;3.23;2.90;;;10.60;74.60;10.50;96971.00;;;;5070517;28;20199;-84
2022/10/05 03:43:24;;;;;;;2.87;2.67;;;10.60;74.50;10.50;96964.00;;;;5070727;28;20283;-83
2022/10/05 03:46:05;;;;;;;2.70;2.50;;;10.60;74.50;10.40;96968.00;;;;5064465;28;20224;-84
2022/10/05 03:48:48;;;;;;;3.23;2.60;;;10.60;74.50;10.40;96965.00;;;;5068821;28;20717;-83
2022/10/05 03:51:24;;;;;;;3.97;2.67;;;10.50;74.50;10.40;96973.00;;;;5072424;28;20192;-83
2022/10/05 03:54:00;;;;;;;2.77;2.57;;;10.50;74.40;10.40;96971.00;;;;5068017;28;20259;-84
2022/10/05 03:56:38;;;;;;;3.10;2.90;;;10.50;74.50;10.40;96969.00;;;;5067731;28;20262;-83
2022/10/05 03:59:16;;;;;;;3.17;2.53;;;10.50;74.50;10.40;96965.00;;;;5068871;28;20219;-83
2022/10/05 04:02:02;;;;;;;3.30;2.67;;;10.50;74.40;10.30;96967.00;;;;5063103;28;20577;-83
2022/10/05 04:04:39;;;;;;;3.00;2.73;;;10.40;74.40;10.30;96977.00;;;;5065442;28;20304;-84
2022/10/05 04:07:22;;;;;;;2.53;2.33;;;10.40;74.40;10.30;96971.00;;;;5060578;28;20300;-83
2022/10/05 04:09:54;;;;;;;2.80;2.47;;;10.40;74.40;10.30;96969.00;;;;5072528;28;20191;-83
2022/10/05 04:12:28;;;;;;;3.87;2.80;;;10.40;74.40;10.30;96966.00;;;;5074819;28;20203;-83
2022/10/05 04:15:03;;;;;;;2.60;2.40;;;10.40;74.50;10.30;96969.00;;;;5069422;28;20229;-83
2022/10/05 04:17:39;;;;;;;2.73;2.53;;;10.40;75.30;10.20;96971.00;;;;5066375;28;20204;-83
2022/10/05 04:20:18;;;;;;;3.03;2.73;;;10.30;74.40;10.20;96965.00;;;;5065466;28;20668;-83
2022/10/05 04:22:59;;;;;;;3.03;2.70;;;10.30;74.30;10.20;96962.00;;;;5065955;28;20200;-83
2022/10/05 04:25:34;;;;;;;3.27;2.77;;;10.30;74.60;10.20;96964.00;;;;5067966;28;20300;-84
2022/10/05 04:28:12;;;;;;;3.20;2.90;;;10.30;74.70;10.20;96971.00;;;;5067586;28;20223;-84
2022/10/05 04:30:44;;;;;;;2.83;2.63;;;10.30;74.70;10.20;96957.00;;;;5061573;28;20207;-84
2022/10/05 04:33:14;;;;;;;2.43;2.10;;;10.30;74.70;10.20;96959.00;;;;5068513;28;20657;-84
2022/10/05 04:36:11;;;;;;;2.83;2.63;;;10.30;74.70;10.20;96971.00;;;;5062121;28;20346;-84
2022/10/05 04:39:02;;;;;;;3.10;2.80;;;10.30;74.50;10.10;96961.00;;;;5058411;28;20203;-84
2022/10/05 04:42:00;;;;;;;3.03;2.83;;;10.20;74.60;10.10;96966.00;;;;5059880;28;20194;-84
2022/10/05 04:44:54;;;;;;;2.97;2.77;;;10.20;74.40;10.10;96969.00;;;;5058764;28;20221;-83
2022/10/05 04:47:51;;;;;;;3.43;2.47;;;10.20;74.50;10.10;96970.00;;;;5068329;28;20218;-84
2022/10/05 04:50:33;;;;;;;3.07;2.80;;;10.20;74.50;10.10;96972.00;;;;5061167;28;20202;-84
2022/10/05 04:53:13;;;;;;;3.63;3.03;;;10.20;74.50;10.00;96980.00;;;;5064973;28;20195;-84
2022/10/05 04:55:57;;;;;;;2.60;2.40;;;10.20;74.60;10.00;96980.00;;;;5065787;28;20312;-84
2022/10/05 04:58:42;;;;;;;2.80;2.60;;;10.20;74.50;10.00;96977.00;;;;5070159;28;20275;-84
2022/10/05 05:01:30;;;;;;;2.60;2.40;;;10.10;74.50;10.00;96988.00;;;;5058771;28;20210;-84
2022/10/05 05:04:42;;;;;;;3.73;2.70;;;10.10;74.40;10.00;96981.00;;;;5061441;28;20267;-85
2022/10/05 05:07:28;;;;;;;2.70;2.50;;;10.10;74.50;10.00;96987.00;;;;5061965;28;20661;-84
2022/10/05 05:10:53;;;;;;;2.90;2.60;;;10.00;74.60;10.00;96987.00;;;;5061019;28;20192;-85
2022/10/05 05:14:01;;;;;;;2.70;2.50;;;10.10;74.90;10.00;96980.00;;;;5036281;28;20208;-85
2022/10/05 05:16:35;;;;;;;2.83;2.47;;;10.10;74.90;10.00;96988.00;;;;5024183;28;20303;-86
2022/10/05 05:19:28;;;;;;;2.37;2.23;;;10.10;74.90;10.10;96985.00;;;;5063195;28;20197;-85
2022/10/05 05:22:04;;;;;;;2.80;2.60;;;10.10;74.90;10.10;96993.00;;;;5065656;28;20207;-85
2022/10/05 05:24:52;;;;;;;2.70;2.50;;;10.10;74.90;10.10;96992.00;;;;5073376;28;20216;-85
2022/10/05 05:27:41;;;;;;;2.30;2.20;;;10.10;74.80;10.10;96989.00;;;;5062333;28;20206;-85
2022/10/05 05:30:21;;;;;;;2.70;2.50;;;10.10;74.70;10.10;96990.00;;;;5056200;28;20649;-85
2022/10/05 05:33:08;;;;;;;2.63;2.00;;;10.10;74.70;10.10;96991.00;;;;5062841;28;20192;-86
2022/10/05 05:36:22;;;;;;;3.07;2.30;;;10.10;74.80;10.10;96991.00;;;;5071365;28;20228;-86
2022/10/05 05:39:07;;;;;;;2.30;2.20;;;10.10;75.00;10.10;97000.00;;;;5071093;28;20196;-86
2022/10/05 05:41:39;;;;;;;2.90;2.70;;;10.20;75.10;10.10;96989.00;;;;5073137;28;20637;-85
2022/10/05 05:44:21;;;;;;;2.50;2.40;;;10.10;75.80;10.20;96982.00;;;;5069725;28;20216;-85
2022/10/05 05:46:58;;;;;;;3.80;2.37;;;10.10;75.40;10.20;96985.00;;;;5062254;28;20192;-85
2022/10/05 05:49:38;;;;;;;2.50;2.33;;;10.10;75.50;10.20;96986.00;;;;5064924;28;20717;-85
2022/10/05 05:52:16;;;;;;;2.57;2.37;;;10.20;75.70;10.20;96984.00;;;;5065657;28;20199;-85
2022/10/05 05:54:53;;;;;;;1.93;1.83;;;10.10;75.80;10.20;96984.00;;;;5065033;28;20701;-84
2022/10/05 05:57:28;;;;;;;1.70;1.60;;;10.20;75.90;10.30;96984.00;;;;5067539;28;20203;-85
2022/10/05 06:00:06;;;;;;;1.97;1.87;;;10.20;76.00;10.30;96989.00;;;;5062902;28;20228;-85
2022/10/05 06:02:50;;;;;;;1.77;1.67;;;10.20;76.80;10.30;96996.00;;;;5065890;28;20640;-85
2022/10/05 06:05:32;;;;;;;1.70;1.60;;;10.30;76.20;10.40;97006.00;;;;5066701;28;20298;-85
2022/10/05 06:08:06;;;;;;;1.70;1.60;;;10.30;76.30;10.40;97003.00;;;;5060171;28;20204;-84
2022/10/05 06:10:43;;;;;;;1.60;1.50;;;10.30;76.30;10.40;97011.00;;;;5064304;28;20200;-86
2022/10/05 06:13:19;;;;;;;1.80;1.70;;;10.30;76.30;10.50;97008.00;;;;5068383;28;20195;-84
2022/10/05 06:15:55;;;;;;;2.00;1.80;;;10.30;76.40;10.50;97012.00;;;;5064604;28;20235;-85
2022/10/05 06:18:23;;;;;;;1.83;1.73;;;10.40;76.50;10.50;97017.00;;;;5063121;28;20227;-85
2022/10/05 06:20:59;;;;;;;1.83;1.73;;;10.50;76.50;10.50;97013.00;;;;5074216;28;20208;-85
2022/10/05 06:23:37;;;;;;;2.50;2.30;;;10.40;76.50;10.60;97010.00;;;;5070547;28;20443;-85
2022/10/05 06:26:36;;;;;;;1.90;1.80;;;10.40;77.10;10.60;97012.00;;;;5063762;28;20272;-86
2022/10/05 06:29:12;;;;;;;1.97;1.87;;;10.50;77.00;10.70;97005.00;;;;5068639;28;20188;-86
2022/10/05 06:32:03;;;;;;;1.83;1.73;;;10.50;76.90;10.70;96999.00;;;;5067136;28;20200;-86
2022/10/05 06:34:53;;;;;;;1.90;1.80;;;10.40;76.70;10.70;97000.00;;;;5068555;28;20306;-86
2022/10/05 06:37:36;;;;;;;1.77;1.67;;;10.60;76.80;10.80;97003.00;;;;5067535;28;20784;-86
2022/10/05 06:40:19;;;;;;;2.20;2.00;;;10.60;76.80;10.80;97004.00;;;;5067216;28;20200;-86
2022/10/05 06:43:26;;;;;;;2.50;2.30;;;10.70;77.00;10.90;97019.00;;;;5064823;28;20641;-86
2022/10/05 06:46:06;;;;;;;2.57;2.47;;;10.60;77.00;10.90;97006.00;;;;5068230;28;20274;-87
2022/10/05 06:48:55;;;;;;;3.10;2.90;;;10.70;77.10;10.90;97006.00;;;;5073833;28;20202;-86
2022/10/05 06:51:39;;;;;;;3.30;3.00;;;10.80;77.30;11.00;97016.00;;;;5072218;28;20271;-85
2022/10/05 06:54:27;;;;;;;3.23;2.93;;;10.80;77.50;11.00;97005.00;;;;5072913;28;20208;-86
2022/10/05 06:57:04;;;;;;;3.53;3.23;;;10.80;77.60;11.10;97010.00;;;;5066249;28;20227;-86
2022/10/05 06:59:49;;;;;;;3.23;2.97;;;10.90;77.80;11.20;97013.00;;;;5058467;28;20216;-86
2022/10/05 07:02:26;;;;;;;4.13;3.27;;;10.90;77.90;11.30;97010.00;;;;5060128;28;20193;-86
2022/10/05 07:05:42;;;;;;;3.43;3.20;;;11.00;78.10;11.30;97016.00;;;;5060253;28;20208;-85
2022/10/05 07:08:15;;;;;;;3.20;2.97;;;11.10;78.40;11.40;97018.00;;;;5049536;28;20226;-85
2022/10/05 07:11:03;;;;;;;3.63;3.33;;;11.10;78.50;11.50;97024.00;;;;5049950;28;20487;-86
2022/10/05 07:14:04;;;;;;;3.57;3.23;;;11.20;79.10;11.60;97021.00;;;;5051184;28;20200;-86
2022/10/05 07:16:46;;;;;;;3.37;3.13;;;11.30;79.40;11.70;97023.00;;;;5055435;28;20220;-86
2022/10/05 07:19:31;;;;;;;3.40;3.10;;;11.40;79.70;11.80;97032.00;;;;5071675;28;20649;-86
2022/10/05 07:22:29;;;;;;;3.10;2.90;;;11.50;80.60;11.90;97034.00;;;;5070121;28;20200;-86
2022/10/05 07:25:09;;;;;;;3.53;3.00;;;11.60;80.10;12.00;97050.00;;;;5074025;28;20252;-86
2022/10/05 07:27:44;;;;;;;4.60;3.40;;;11.70;80.30;12.20;97051.00;;;;5067820;28;20287;-86
2022/10/05 07:30:15;;;;;;;3.30;3.00;;;11.80;80.50;12.30;97056.00;;;;5074380;28;20219;-86
2022/10/05 07:32:54;;;;;;;3.13;2.80;;;11.90;80.70;12.40;97051.00;;;;5067332;28;20287;-86
2022/10/05 07:38:30;;;;;;;2.63;2.43;;;12.10;81.10;12.70;97048.00;;;;5067982;28;20211;-86
2022/10/05 07:41:06;;;;;;;2.70;2.20;;;12.30;81.30;12.90;97058.00;;;;5051727;28;20200;-86
2022/10/05 07:43:54;;;;;;;2.70;2.50;;;12.30;81.40;13.10;97067.00;;;;5055223;28;20199;-85
2022/10/05 07:46:29;;;;;;;2.33;2.13;;;12.60;81.70;13.30;97065.00;;;;5064724;28;20240;-86
2022/10/05 07:49:05;;;;;;;1.80;1.70;;;12.70;81.70;13.40;97074.00;;;;5065178;28;20282;-86
2022/10/05 07:51:39;;;;;;;1.93;1.83;;;12.90;81.80;13.60;97068.00;;;;5052140;28;20197;-87
2022/10/05 07:54:21;;;;;;;2.53;2.33;;;13.10;81.90;13.80;97071.00;;;;5055162;28;20752;-86
2022/10/05 07:56:55;;;;;;;2.47;2.27;;;13.20;81.80;14.00;97081.00;;;;5054558;28;20216;-86
2022/10/05 07:59:34;;;;;;;2.10;1.90;;;13.40;81.70;14.20;97085.00;;;;5052662;28;20232;-86
2022/10/05 08:02:23;;;;;;;1.90;1.77;;;13.50;81.40;14.40;97076.00;;;;5057287;28;20195;-86
2022/10/05 08:05:00;;;;;;;1.83;1.73;;;13.70;81.40;14.60;97088.00;;;;5065021;28;20571;-86
2022/10/05 08:07:31;;;;;;;1.77;1.67;;;13.90;81.20;14.70;97083.00;;;;5070860;28;20278;-86
2022/10/05 08:10:17;;;;;;;2.30;1.80;;;14.10;81.10;14.90;97089.00;;;;5070503;28;20181;-87
2022/10/05 08:13:04;;;;;;;2.07;1.90;;;14.20;81.10;15.10;97095.00;;;;5059803;28;20200;-87
2022/10/05 08:15:37;;;;;;;1.77;1.67;;;14.40;80.80;15.20;97090.00;;;;5066377;28;20277;-86
2022/10/05 08:18:14;;;;;;;2.13;1.60;;;14.60;80.70;15.40;97089.00;;;;5066097;28;20203;-86
2022/10/05 08:20:47;;;;;;;1.83;1.73;;;14.70;80.50;15.60;97096.00;;;;5070694;28;20291;-86
2022/10/05 08:23:25;;;;;;;2.20;2.00;;;14.80;80.20;15.70;97080.00;;;;5063445;28;20294;-87
2022/10/05 08:26:08;;;;;;;2.10;1.90;;;15.00;80.20;15.90;97093.00;;;;5064578;28;20214;-87
2022/10/05 08:28:41;;;;;;;2.10;1.53;;;15.20;80.10;16.10;97086.00;;;;5068971;28;20223;-87
2022/10/05 08:31:24;;;;;;;3.40;2.00;;;15.40;80.20;16.30;97096.00;;;;5065117;28;20191;-87
2022/10/05 08:34:06;;;;;;;2.43;1.90;;;15.50;80.20;16.50;97090.00;;;;5067098;28;20219;-87
2022/10/05 08:36:54;;;;;;;1.53;1.43;;;15.70;80.00;16.70;97097.00;;;;5067054;28;20310;-87
2022/10/05 08:39:26;;;;;;;2.40;1.83;;;15.90;79.90;16.90;97095.00;;;;5070807;28;20227;-86
2022/10/05 08:42:39;;;;;;;1.30;1.20;;;16.00;79.80;17.00;97097.00;;;;5061662;28;20192;-87
2022/10/05 08:45:50;;;;;;;1.97;1.60;;;16.20;78.40;17.20;97103.00;;;;5061104;28;20296;-87
2022/10/05 08:49:14;;;;;;;2.77;1.67;;;16.40;77.70;17.40;97108.00;;;;5070683;28;20207;-87
2022/10/05 08:52:22;;;;;;;1.40;1.30;;;16.60;78.00;17.60;97098.00;;;;5018476;28;20283;-87
2022/10/05 08:55:33;;;;;;;1.30;1.20;;;16.80;77.20;17.80;97102.00;;;;5069866;28;20298;-85
2022/10/05 08:58:56;;;;;;;2.20;1.30;;;17.10;77.20;18.00;97102.00;;;;5062861;28;20306;-85
2022/10/05 09:01:37;;;;;;;1.30;1.20;;;17.30;77.00;18.20;97110.00;;;;5055859;28;20201;-86
2022/10/05 09:04:34;;;;;;;1.07;0.97;;;17.40;77.30;18.40;97105.00;;;;5062664;28;20326;-86
2022/10/05 09:07:33;;;;;;;1.03;0.93;;;17.60;76.30;18.50;97115.00;;;;5056946;28;20201;-86
2022/10/05 09:10:50;;;;;;;1.47;1.00;;;17.80;76.60;18.70;97108.00;;;;5054666;28;20203;-86
2022/10/05 09:13:57;;;;;;;1.37;0.70;;;17.90;74.50;18.90;97109.00;;;;5054950;28;20280;-86
2022/10/05 09:16:56;;;;;;;0.87;0.80;;;18.10;75.20;19.10;97108.00;;;;5072142;28;20249;-87
2022/10/05 09:20:10;;;;;;;0.80;0.80;;;18.30;75.70;19.30;97118.00;;;;5056421;28;20207;-86
2022/10/05 09:22:59;;;;;;;1.60;1.40;;;18.50;73.40;19.50;97108.00;;;;5056713;28;20279;-86
2022/10/05 09:25:42;;;;;;;5.13;1.37;;;18.70;72.80;19.60;97118.00;;;;5074838;28;20220;-86
2022/10/05 09:28:25;;;;;;;1.03;0.83;;;18.90;72.90;19.80;97112.00;;;;5070978;28;20227;-86
2022/10/05 09:31:07;;;;;;;0.87;0.87;;;19.00;73.40;20.00;97112.00;;;;5063269;28;20275;-86
2022/10/05 09:34:26;;;;;;;1.93;0.70;;;19.20;72.90;20.30;97111.00;;;;5068783;28;20230;-86
2022/10/05 09:37:28;;;;;;;4.10;1.13;;;19.40;74.30;20.50;97109.00;;;;5061972;28;20212;-86
2022/10/05 09:40:46;;;;;;;1.00;0.90;;;19.70;73.70;20.70;97112.00;;;;5071805;28;20223;-86
2022/10/05 09:44:00;;;;;;;1.17;0.70;;;19.80;73.90;20.90;97111.00;;;;5068063;28;20234;-86
2022/10/05 09:47:03;;;;;;;1.00;0.80;;;20.00;73.80;21.10;97116.00;;;;5070065;28;20291;-86
2022/10/05 09:49:56;;;;;;;1.00;0.80;;;20.30;73.20;21.30;97115.00;;;;5072677;28;20203;-86
2022/10/05 09:53:05;;;;;;;1.27;0.90;;;20.50;72.70;21.50;97113.00;;;;5074539;28;20285;-86
2022/10/05 09:56:19;;;;;;;0.93;0.87;;;20.70;72.20;21.60;97114.00;;;;5016522;28;20213;-86
2022/10/05 09:59:38;;;;;;;0.70;0.70;;;20.80;72.60;21.70;97118.00;;;;4989407;28;20235;-87
2022/10/05 10:02:27;;;;;;;0.87;0.70;;;21.10;71.30;21.90;97116.00;;;;4983389;28;20293;-86
2022/10/05 10:05:33;;;;;;;0.57;0.57;;;21.30;71.80;22.00;97114.00;;;;5062139;28;20294;-86
2022/10/05 10:08:20;;;;;;;2.20;0.60;;;21.40;71.40;22.20;97113.00;;;;5054337;28;20232;-87
2022/10/05 10:11:34;;;;;;;1.30;0.90;;;21.60;71.30;22.30;97110.00;;;;5054077;28;20662;-87
2022/10/05 10:14:24;;;;;;;1.57;0.70;;;21.80;69.10;22.50;97117.00;;;;5058938;28;20589;-86
2022/10/05 10:17:32;;;;;;;1.00;0.80;;;22.00;70.20;22.60;97109.00;;;;5065654;28;20232;-87
2022/10/05 10:20:35;;;;;;;1.00;0.90;;;22.10;69.10;22.70;97110.00;;;;5062071;28;20242;-87
2022/10/05 10:23:25;;;;;;;2.47;0.70;;;22.20;67.90;22.80;97109.00;;;;5071076;28;20273;-86
2022/10/05 10:26:15;;;;;;;2.17;1.10;;;22.30;68.70;22.90;97105.00;;;;5063496;28;20196;-87
2022/10/05 10:29:28;;;;;;;1.80;0.70;;;22.40;68.90;23.00;97101.00;;;;5069785;28;20743;-86
2022/10/05 10:32:39;;;;;;;2.10;0.77;;;22.50;66.60;23.10;97103.00;;;;5055320;28;20287;-86
2022/10/05 10:35:31;;;;;;;0.77;0.77;;;22.60;67.20;23.10;97100.00;;;;5046099;28;20231;-86
2022/10/05 10:38:35;;;;;;;0.80;0.80;;;22.70;67.30;23.20;97099.00;;;;5061877;28;20287;-87
2022/10/05 10:41:51;;;;;;;1.20;0.90;;;22.70;66.50;23.20;97098.00;;;;5064303;28;20619;-87
2022/10/05 10:45:19;;;;;;;1.50;1.00;;;22.80;65.70;23.20;97106.00;;;;5047819;28;20316;-87
2022/10/05 10:47:54;;;;;;;1.70;0.70;;;22.80;64.90;23.20;97106.00;;;;5073041;28;20188;-87
2022/10/05 10:51:07;;;;;;;0.80;0.80;;;22.80;66.30;23.20;97100.00;;;;5071185;28;20286;-86
2022/10/05 10:54:40;;;;;;;0.80;0.80;;;22.80;65.00;23.20;97103.00;;;;5060643;28;20200;-86
2022/10/05 10:57:14;;;;;;;0.60;0.60;;;22.80;65.60;23.20;97099.00;;;;5068845;28;20252;-86
2022/10/05 11:00:28;;;;;;;1.30;1.03;;;22.70;66.10;23.10;97095.00;;;;5064356;28;20199;-86
2022/10/05 11:03:38;;;;;;;1.00;0.90;;;22.70;65.40;23.20;97095.00;;;;5059350;28;20291;-86
2022/10/05 11:06:24;;;;;;;0.60;0.60;;;22.70;64.90;23.20;97093.00;;;;5064501;28;20199;-87
2022/10/05 11:09:39;;;;;;;1.37;0.80;;;22.70;66.10;23.30;97089.00;;;;5065297;28;20568;-87
2022/10/05 11:12:52;;;;;;;1.37;1.07;;;22.70;65.60;23.30;97094.00;;;;5072917;28;20271;-87
2022/10/05 11:16:12;;;;;;;0.70;0.70;;;22.70;66.00;23.30;97085.00;;;;5067131;28;20222;-87
2022/10/05 11:19:04;;;;;;;1.37;0.70;;;22.80;65.10;23.30;97080.00;;;;5070365;28;20303;-86
2022/10/05 11:21:48;;;;;;;4.10;1.10;;;22.80;66.10;23.30;97083.00;;;;5052717;28;20647;-86
2022/10/05 11:24:55;;;;;;;1.17;0.70;;;22.80;66.10;23.40;97078.00;;;;5069824;28;20212;-86
2022/10/05 11:27:59;;;;;;;0.90;0.60;;;22.80;66.70;23.40;97081.00;;;;5052750;28;20196;-87
2022/10/05 11:31:01;;;;;;;0.67;0.67;;;22.80;65.60;23.40;97077.00;;;;5063299;28;20206;-86
2022/10/05 11:34:25;;;;;;;0.60;0.60;;;22.80;64.60;23.40;97072.00;;;;5070266;28;20198;-86
2022/10/05 11:37:48;;;;;;;0.50;0.50;;;22.90;65.20;23.50;97063.00;;;;5063289;28;20310;-87
2022/10/05 11:41:03;;;;;;;1.27;0.70;;;22.90;64.80;23.50;97059.00;;;;5046223;28;20200;-88
2022/10/05 11:44:38;;;;;;;0.70;0.70;;;22.90;66.40;23.50;97053.00;;;;5062849;28;20239;-87
2022/10/05 11:47:18;;;;;;;1.57;0.80;;;23.00;65.80;23.60;97050.00;;;;5047393;28;20661;-87
2022/10/05 11:50:04;;;;;;;0.50;0.50;;;23.00;65.70;23.60;97042.00;;;;5071520;28;20283;-87
2022/10/05 11:52:40;;;;;;;0.73;0.73;;;23.00;65.50;23.70;97040.00;;;;5064326;28;20207;-85
2022/10/05 11:55:24;;;;;;;1.33;0.70;;;23.00;65.50;23.70;97045.00;;;;5064711;28;20216;-86
2022/10/05 11:57:56;;;;;;;0.53;0.53;;;23.10;65.40;23.70;97036.00;;;;5068193;28;20222;-86
2022/10/05 12:00:29;;;;;;;0.70;0.70;;;23.20;65.90;23.80;97028.00;;;;5065197;28;20713;-86
2022/10/05 12:03:36;;;;;;;0.83;0.83;;;23.10;65.40;23.90;97033.00;;;;5058819;28;20313;-85
2022/10/05 12:06:35;;;;;;;0.60;0.60;;;23.30;64.20;23.90;97038.00;;;;5055947;28;20284;-86
2022/10/05 12:09:25;;;;;;;0.90;0.53;;;23.30;64.60;24.00;97025.00;;;;5060827;28;20297;-86
2022/10/05 12:12:10;;;;;;;0.77;0.70;;;23.40;64.10;24.10;97022.00;;;;5055332;28;20197;-87
2022/10/05 12:14:53;;;;;;;1.07;0.97;;;23.40;64.90;24.10;97020.00;;;;5057908;28;20221;-83
2022/10/05 12:17:35;;;;;;;0.60;0.60;;;23.50;65.00;24.20;97021.00;;;;5074000;28;20691;-85
2022/10/05 12:20:12;;;;;;;0.57;0.57;;;23.50;64.20;24.20;97013.00;;;;5062393;28;20264;-84
2022/10/05 12:22:50;;;;;;;0.77;0.70;;;23.60;64.40;24.30;97012.00;;;;5058709;28;20238;-85